Time;durP1;ratioP1;P1;durP2;ratioP2;P2;SDS_P1;SDS_P2;PMS_P1;PMS_P2;Temp;Humidity;BMP_temperature;BMP_pressure;BME280_temperature;BME280_humidity;BME280_pressure;Samples;Min_cycle;Max_cycle;Signal;HPM_P1;HPM_P2
2023/10/25 00:01:26;;;;;;;3.83;2.00;;;;;;;8.64;100.00;100184.25;5070045;28;20287;-35
2023/10/25 00:03:51;;;;;;;3.70;2.00;;;;;;;8.58;100.00;100177.06;5069688;28;20067;-35
2023/10/25 00:06:16;;;;;;;5.60;2.00;;;;;;;8.54;100.00;100165.16;5069884;28;20364;-35
2023/10/25 00:08:42;;;;;;;5.30;2.30;;;;;;;8.54;100.00;100175.06;5061770;28;20020;-35
2023/10/25 00:11:07;;;;;;;5.38;1.80;;;;;;;8.50;100.00;100167.47;5056990;28;20025;-35
2023/10/25 00:13:34;;;;;;;3.72;2.00;;;;;;;8.42;100.00;100151.66;5056864;28;20021;-34
2023/10/25 00:15:59;;;;;;;;;;;;;;;8.57;100.00;100167.34;5057216;28;20433;-35
2023/10/25 00:18:24;;;;;;;4.75;2.00;;;;;;;8.51;100.00;100171.81;5055876;28;20012;-35
2023/10/25 00:20:53;;;;;;;9.07;2.63;;;;;;;8.51;100.00;100165.59;5056999;28;20032;-35
2023/10/25 00:23:19;;;;;;;6.28;2.33;;;;;;;8.46;100.00;100158.22;5056146;28;20021;-35
2023/10/25 00:25:45;;;;;;;;;;;;;;;8.52;100.00;100159.97;5056862;28;20099;-34
2023/10/25 00:28:11;;;;;;;7.05;2.67;;;;;;;8.46;100.00;100160.91;5056011;28;19951;-35
2023/10/25 00:30:36;;;;;;;;;;;;;;;8.50;100.00;100147.81;5056990;28;20095;-35
2023/10/25 00:33:02;;;;;;;7.22;2.38;;;;;;;8.45;100.00;100150.38;5056191;28;20029;-35
2023/10/25 00:35:27;;;;;;;7.43;3.08;;;;;;;8.47;100.00;100157.16;5055603;28;20112;-35
2023/10/25 00:37:52;;;;;;;7.00;3.00;;;;;;;8.42;100.00;100153.53;5056060;28;20029;-35
2023/10/25 00:40:18;;;;;;;5.80;3.37;;;;;;;8.31;100.00;100138.97;5056223;28;20017;-35
2023/10/25 00:42:43;;;;;;;10.37;3.00;;;;;;;8.34;100.00;100148.44;5055807;28;20025;-35
2023/10/25 00:45:09;;;;;;;10.43;3.40;;;;;;;8.44;100.00;100167.56;5055862;28;20376;-35
2023/10/25 00:47:34;;;;;;;6.20;3.25;;;;;;;8.31;100.00;100143.53;5055340;28;20028;-35
2023/10/25 00:49:59;;;;;;;6.93;2.83;;;;;;;8.37;100.00;100151.53;5056427;28;20032;-35
2023/10/25 00:52:25;;;;;;;8.07;3.40;;;;;;;8.42;100.00;100165.13;5055867;28;20029;-35
2023/10/25 00:54:51;;;;;;;7.63;3.40;;;;;;;8.25;100.00;100148.81;5055233;28;20024;-35
2023/10/25 00:57:17;;;;;;;8.27;3.22;;;;;;;8.32;100.00;100164.03;5055669;28;20044;-35
2023/10/25 00:59:42;;;;;;;6.95;3.35;;;;;;;8.26;100.00;100149.63;5055762;28;20099;-35
2023/10/25 01:02:08;;;;;;;9.47;3.73;;;;;;;8.26;100.00;100142.38;5055875;28;20063;-35
2023/10/25 01:04:34;;;;;;;7.47;3.17;;;;;;;8.31;100.00;100151.63;5055328;28;20025;-35
2023/10/25 01:06:59;;;;;;;6.20;2.88;;;;;;;8.33;100.00;100152.19;5055306;28;20047;-35
2023/10/25 01:09:25;;;;;;;6.77;3.00;;;;;;;8.25;100.00;100140.72;5056131;28;20017;-34
2023/10/25 01:11:50;;;;;;;7.85;3.20;;;;;;;8.25;100.00;100131.81;5054973;28;20483;-34
2023/10/25 01:14:15;;;;;;;4.07;2.77;;;;;;;8.29;100.00;100138.38;5054828;28;20021;-35
2023/10/25 01:16:41;;;;;;;7.40;2.87;;;;;;;8.27;100.00;100132.41;5055645;28;20025;-35
2023/10/25 01:19:06;;;;;;;8.00;3.13;;;;;;;8.32;100.00;100139.78;5054872;28;20615;-34
2023/10/25 01:21:32;;;;;;;7.77;3.03;;;;;;;8.28;100.00;100139.41;5054276;28;20051;-35
2023/10/25 01:23:57;;;;;;;5.65;2.50;;;;;;;8.26;100.00;100136.16;5055491;28;20065;-34
2023/10/25 01:26:22;;;;;;;6.23;2.90;;;;;;;8.16;100.00;100122.44;5054960;28;20025;-34
2023/10/25 01:28:48;;;;;;;6.90;2.50;;;;;;;8.11;100.00;100116.94;5054558;28;20275;-35
2023/10/25 01:31:13;;;;;;;5.17;2.80;;;;;;;8.12;100.00;100111.31;5055159;28;20103;-35
2023/10/25 01:33:38;;;;;;;7.97;2.70;;;;;;;8.17;100.00;100116.81;5054508;28;20064;-35
2023/10/25 01:36:04;;;;;;;6.33;2.30;;;;;;;8.12;100.00;100105.09;5054966;28;20091;-35
2023/10/25 01:38:29;;;;;;;5.60;2.30;;;;;;;8.21;100.00;100115.31;5054651;28;20373;-35
2023/10/25 01:40:54;;;;;;;5.60;2.23;;;;;;;8.15;100.00;100102.78;5054756;28;20441;-35
2023/10/25 01:43:21;;;;;;;4.00;2.23;;;;;;;8.23;100.00;100110.50;5054626;28;20519;-35
2023/10/25 01:45:46;;;;;;;;;;;;;;;8.30;100.00;100106.88;5054995;28;20090;-35
2023/10/25 01:48:11;;;;;;;8.13;2.10;;;;;;;8.25;100.00;100094.13;5054950;28;19908;-34
2023/10/25 01:50:37;;;;;;;6.27;2.87;;;;;;;8.22;100.00;100092.69;5054849;28;20109;-35
2023/10/25 01:53:02;;;;;;;5.33;2.30;;;;;;;8.28;100.00;100101.72;5054155;28;20024;-35
2023/10/25 01:55:27;;;;;;;5.53;2.07;;;;;;;8.22;100.00;100102.66;5054795;28;20071;-35
2023/10/25 01:57:53;;;;;;;5.27;2.03;;;;;;;8.18;100.00;100091.53;5054698;28;20044;-35
2023/10/25 02:00:18;;;;;;;3.90;2.00;;;;;;;8.24;100.00;100084.38;5053869;28;20374;-35
2023/10/25 02:02:44;;;;;;;5.20;2.05;;;;;;;8.24;100.00;100082.50;5054537;28;20032;-35
2023/10/25 02:05:09;;;;;;;6.03;1.60;;;;;;;8.26;100.00;100076.91;5054424;28;20036;-35
2023/10/25 02:07:35;;;;;;;3.83;1.75;;;;;;;8.17;100.00;100072.91;5053914;28;20082;-36
2023/10/25 02:10:00;;;;;;;4.25;1.90;;;;;;;8.20;100.00;100072.44;5054661;28;20119;-35
2023/10/25 02:12:26;;;;;;;3.20;1.70;;;;;;;8.24;100.00;100073.59;5053824;28;20430;-35
2023/10/25 02:14:51;;;;;;;4.33;1.90;;;;;;;8.26;100.00;100074.19;5054528;28;20017;-35
2023/10/25 02:17:17;;;;;;;5.23;1.93;;;;;;;8.27;100.00;100067.75;5054228;28;20615;-35
2023/10/25 02:19:45;;;;;;;4.65;2.10;;;;;;;8.15;100.00;100048.91;5053923;28;20028;-35
2023/10/25 02:22:10;;;;;;;6.43;1.92;;;;;;;8.31;100.00;100066.25;5053882;28;20025;-35
2023/10/25 02:24:35;;;;;;;4.50;2.00;;;;;;;8.30;100.00;100069.19;5053829;28;20060;-35
2023/10/25 02:27:01;;;;;;;5.83;1.97;;;;;;;8.33;100.00;100061.41;5054168;28;20407;-35
2023/10/25 02:29:26;;;;;;;4.43;1.97;;;;;;;8.37;100.00;100059.13;5054427;28;20433;-35
2023/10/25 02:31:51;;;;;;;5.60;2.20;;;;;;;8.31;100.00;100060.84;5053922;28;20259;-35
2023/10/25 02:34:17;;;;;;;6.47;2.67;;;;;;;8.35;100.00;100061.22;5054305;28;20033;-35
2023/10/25 02:36:42;;;;;;;5.77;1.97;;;;;;;8.38;100.00;100053.47;5053668;28;20381;-35
2023/10/25 02:39:09;;;;;;;5.53;2.00;;;;;;;8.34;100.00;100044.19;5053704;28;20036;-35
2023/10/25 02:41:34;;;;;;;7.00;2.33;;;;;;;8.34;100.00;100052.28;5053949;28;20024;-35
2023/10/25 02:44:01;;;;;;;4.63;2.17;;;;;;;8.32;100.00;100032.84;5053404;28;20654;-35
2023/10/25 02:46:26;;;;;;;4.75;1.80;;;;;;;8.40;100.00;100042.50;5053561;28;20127;-35
2023/10/25 02:48:52;;;;;;;4.38;2.03;;;;;;;8.40;100.00;100029.03;5053278;28;20107;-35
2023/10/25 02:51:18;;;;;;;5.78;2.28;;;;;;;8.32;100.00;100021.25;5053819;28;20449;-35
2023/10/25 02:53:44;;;;;;;3.20;1.55;;;;;;;8.41;100.00;100031.47;5053746;28;20032;-35
2023/10/25 02:56:09;;;;;;;4.07;1.70;;;;;;;8.36;100.00;100028.66;5053679;28;20437;-35
2023/10/25 02:58:35;;;;;;;3.28;1.60;;;;;;;8.40;100.00;100026.31;5053775;28;20032;-35
2023/10/25 03:01:01;;;;;;;6.97;2.00;;;;;;;8.34;100.00;100019.94;5053456;28;20036;-35
2023/10/25 03:03:27;;;;;;;3.03;1.70;;;;;;;8.33;100.00;100018.31;5053157;28;20025;-35
2023/10/25 03:05:53;;;;;;;4.97;2.00;;;;;;;8.31;100.00;100012.38;5054025;28;20025;-35
2023/10/25 03:08:18;;;;;;;4.83;1.70;;;;;;;8.11;100.00;99987.69;5053411;28;20031;-35
2023/10/25 03:10:44;;;;;;;6.50;2.20;;;;;;;8.24;100.00;100008.97;5053690;28;20487;-35
2023/10/25 03:13:09;;;;;;;3.97;1.60;;;;;;;8.19;100.00;100006.16;5053572;28;20032;-35
2023/10/25 03:15:35;;;;;;;4.23;1.63;;;;;;;8.14;100.00;100003.34;5053140;28;20031;-34
2023/10/25 03:18:01;;;;;;;3.40;1.63;;;;;;;8.13;100.00;100001.72;5052946;28;20109;-35
2023/10/25 03:20:26;;;;;;;4.82;1.50;;;;;;;8.14;100.00;100001.47;5053614;28;20078;-35
2023/10/25 03:22:52;;;;;;;5.60;1.80;;;;;;;8.15;100.00;99989.66;5053730;28;20029;-35
2023/10/25 03:25:17;;;;;;;4.23;2.10;;;;;;;8.18;100.00;99999.13;5054092;28;20025;-35
2023/10/25 03:27:42;;;;;;;3.27;1.90;;;;;;;8.07;100.00;99979.25;5053164;28;20086;-35
2023/10/25 03:30:08;;;;;;;4.57;1.70;;;;;;;8.14;100.00;99985.31;5054107;28;20033;-35
2023/10/25 03:32:33;;;;;;;5.15;1.60;;;;;;;8.19;100.00;99990.00;5053107;28;20029;-35
2023/10/25 03:34:59;;;;;;;2.83;1.43;;;;;;;8.15;100.00;99983.44;5053428;28;20017;-35
2023/10/25 03:37:24;;;;;;;6.27;1.73;;;;;;;8.18;100.00;99985.66;5053006;28;20362;-35
2023/10/25 03:39:49;;;;;;;5.30;1.70;;;;;;;8.14;100.00;99974.53;5053468;28;20021;-35
2023/10/25 03:42:15;;;;;;;7.03;2.30;;;;;;;8.21;100.00;99977.94;5053913;28;20255;-35
2023/10/25 03:44:40;;;;;;;4.73;1.87;;;;;;;8.09;100.00;99960.16;5056051;28;20163;-35
2023/10/25 03:47:05;;;;;;;4.77;1.80;;;;;;;8.20;100.00;99983.56;5056856;28;20255;-35
2023/10/25 03:49:31;;;;;;;4.50;1.67;;;;;;;8.22;100.00;99976.88;5056780;28;20029;-35
2023/10/25 03:51:56;;;;;;;4.80;1.90;;;;;;;8.24;100.00;99971.25;5056803;28;20032;-35
2023/10/25 03:54:22;;;;;;;5.55;1.80;;;;;;;8.29;100.00;99963.28;5056619;28;20266;-35
2023/10/25 03:56:47;;;;;;;5.27;1.77;;;;;;;8.29;100.00;99960.59;5056943;28;20135;-35
2023/10/25 03:59:13;;;;;;;3.23;1.77;;;;;;;8.18;100.00;99940.69;5056878;28;20103;-35
2023/10/25 04:01:38;;;;;;;2.65;1.60;;;;;;;8.32;100.00;99960.13;5056838;28;20020;-35
2023/10/25 04:04:04;;;;;;;4.38;1.90;;;;;;;8.21;100.00;99948.31;5056460;28;20020;-35
2023/10/25 04:06:30;;;;;;;6.07;1.88;;;;;;;8.34;100.00;99962.56;5057277;28;20040;-35
2023/10/25 04:08:55;;;;;;;7.72;2.47;;;;;;;8.36;100.00;99958.63;5056386;28;20103;-35
2023/10/25 04:11:20;;;;;;;2.90;1.63;;;;;;;8.39;100.00;99960.00;5056725;28;20033;-35
2023/10/25 04:13:46;;;;;;;5.87;2.10;;;;;;;8.33;100.00;99959.06;5056056;28;20422;-35
2023/10/25 04:16:11;;;;;;;6.18;1.98;;;;;;;8.31;100.00;99945.03;5056759;28;20071;-34
2023/10/25 04:18:37;;;;;;;5.77;2.30;;;;;;;8.17;100.00;99922.09;5056718;28;20021;-34
2023/10/25 04:21:08;;;;;;;4.80;2.22;;;;;;;8.40;100.00;99954.41;5056716;28;20738;-34
2023/10/25 04:23:33;;;;;;;7.28;2.80;;;;;;;8.41;100.00;99956.03;5056373;28;20519;-34
2023/10/25 04:26:06;;;;;;;5.53;2.70;;;;;;;8.34;100.00;99946.41;5056103;28;20024;-35
2023/10/25 04:28:32;;;;;;;8.07;2.47;;;;;;;8.41;100.00;99947.94;5056163;28;20403;-35
2023/10/25 04:30:57;;;;;;;9.73;2.80;;;;;;;8.37;100.00;99941.41;5056033;28;20025;-34
2023/10/25 04:33:23;;;;;;;7.53;2.70;;;;;;;8.39;100.00;99944.66;5056206;28;20017;-34
2023/10/25 04:35:48;;;;;;;6.50;2.83;;;;;;;8.33;100.00;99934.00;5056463;28;20028;-35
2023/10/25 04:38:13;;;;;;;8.90;2.70;;;;;;;8.44;100.00;99946.63;5055830;28;20278;-34
2023/10/25 04:40:39;;;;;;;7.13;2.93;;;;;;;8.44;100.00;99946.63;5055632;28;20073;-34
2023/10/25 04:43:04;;;;;;;7.50;2.60;;;;;;;8.43;100.00;99951.22;5055487;28;20021;-34
2023/10/25 04:45:30;;;;;;;5.50;2.60;;;;;;;8.43;100.00;99945.00;5056061;28;20247;-35
2023/10/25 04:47:55;;;;;;;6.67;2.97;;;;;;;8.44;100.00;99939.41;5055956;28;20667;-35
2023/10/25 04:50:21;;;;;;;5.00;2.30;;;;;;;8.45;100.00;99940.22;5055761;28;20596;-34
2023/10/25 04:52:47;;;;;;;;;;;;;;;8.50;100.00;99930.34;5056522;28;20263;-34
2023/10/25 04:55:12;;;;;;;5.65;2.33;;;;;;;8.38;100.00;99910.69;5055717;28;20367;-35
2023/10/25 04:57:38;;;;;;;4.78;2.30;;;;;;;8.40;100.00;99913.19;5055340;28;20070;-34
2023/10/25 05:00:04;;;;;;;5.37;2.57;;;;;;;8.49;100.00;99926.03;5055819;28;20056;-34
2023/10/25 05:02:29;;;;;;;;;;;;;;;8.55;100.00;99924.25;5055505;28;20065;-35
2023/10/25 05:04:56;;;;;;;6.07;2.50;;;;;;;8.47;100.00;99919.22;5055725;28;19960;-34
2023/10/25 05:07:21;;;;;;;9.70;2.63;;;;;;;8.43;100.00;99905.41;5055270;28;20274;-34
2023/10/25 05:09:47;;;;;;;5.50;2.35;;;;;;;8.49;100.00;99914.41;5055530;28;20021;-34
2023/10/25 05:12:17;;;;;;;6.05;2.45;;;;;;;8.50;100.00;99898.03;5054967;28;20358;-34
2023/10/25 05:14:42;;;;;;;6.40;3.03;;;;;;;8.51;100.00;99896.97;5055365;28;20078;-34
2023/10/25 05:17:09;;;;;;;8.32;2.88;;;;;;;8.50;100.00;99894.50;5055020;28;20449;-34
2023/10/25 05:19:35;;;;;;;7.60;2.65;;;;;;;8.52;100.00;99898.59;5054969;28;20017;-35
2023/10/25 05:22:10;;;;;;;6.68;2.45;;;;;;;8.56;100.00;99890.03;5055362;28;20468;-35
2023/10/25 05:24:35;;;;;;;4.32;1.95;;;;;;;8.44;100.00;99869.34;5054947;28;20354;-34
2023/10/25 05:27:01;;;;;;;7.65;2.30;;;;;;;8.47;100.00;99863.47;5054973;28;20037;-35
2023/10/25 05:29:27;;;;;;;4.10;2.20;;;;;;;8.55;100.00;99877.63;5054602;28;20518;-35
2023/10/25 05:31:55;;;;;;;5.03;2.45;;;;;;;8.55;100.00;99877.63;5055405;28;20024;-35
2023/10/25 05:34:21;;;;;;;5.05;2.15;;;;;;;8.58;100.00;99879.81;5054790;28;20416;-35
2023/10/25 05:36:47;;;;;;;6.05;2.42;;;;;;;8.58;100.00;99869.03;5054716;28;20028;-35
2023/10/25 05:39:12;;;;;;;4.03;2.55;;;;;;;8.61;100.00;99866.69;5054665;28;20020;-35
2023/10/25 05:41:40;;;;;;;4.28;2.30;;;;;;;8.51;100.00;99853.03;5054651;28;20028;-35
2023/10/25 05:44:15;;;;;;;4.38;2.28;;;;;;;8.61;100.00;99869.38;5054871;28;20066;-35
2023/10/25 05:46:41;;;;;;;6.55;2.80;;;;;;;8.60;100.00;99865.06;5055392;28;20025;-34
2023/10/25 05:49:08;;;;;;;6.35;2.90;;;;;;;8.61;100.00;99857.78;5054505;28;20040;-35
2023/10/25 05:51:33;;;;;;;9.00;3.13;;;;;;;8.55;100.00;99848.81;5054952;28;20017;-34
2023/10/25 05:54:00;;;;;;;4.28;2.28;;;;;;;8.59;100.00;99858.03;5054689;28;20472;-35
2023/10/25 05:56:28;;;;;;;;;;;;;;;8.68;100.00;99858.44;5055054;28;20104;-35
2023/10/25 05:58:54;;;;;;;5.10;2.42;;;;;;;8.62;100.00;99849.44;5054798;28;19913;-35
2023/10/25 06:01:34;;;;;;;6.28;2.40;;;;;;;8.62;100.00;99844.06;5054553;28;20033;-34
2023/10/25 06:04:04;;;;;;;3.95;2.30;;;;;;;8.61;100.00;99847.00;5054503;28;20025;-35
2023/10/25 06:06:30;;;;;;;5.72;2.40;;;;;;;8.61;100.00;99839.75;5053451;28;20453;-34
2023/10/25 06:08:56;;;;;;;6.32;2.20;;;;;;;8.64;100.00;99838.44;5054070;28;20028;-35
2023/10/25 06:11:22;;;;;;;4.65;2.20;;;;;;;8.58;100.00;99824.03;5054497;28;20471;-35
2023/10/25 06:13:47;;;;;;;9.40;2.60;;;;;;;8.57;100.00;99829.69;5053758;28;20436;-34
2023/10/25 06:16:13;;;;;;;7.03;2.10;;;;;;;8.66;100.00;99844.41;5053890;28;20024;-35
2023/10/25 06:18:39;;;;;;;5.30;2.30;;;;;;;8.66;100.00;99839.00;5053966;28;20028;-35
2023/10/25 06:21:04;;;;;;;9.00;3.17;;;;;;;8.67;100.00;99841.47;5054519;28;20052;-34
2023/10/25 06:23:30;;;;;;;5.60;2.20;;;;;;;8.66;100.00;99834.44;5053607;28;20025;-34
2023/10/25 06:25:55;;;;;;;5.20;2.10;;;;;;;8.69;100.00;99833.16;5052916;28;20063;-35
2023/10/25 06:28:20;;;;;;;5.13;2.20;;;;;;;8.66;100.00;99834.44;5054108;28;20025;-35
2023/10/25 06:30:46;;;;;;;4.67;1.90;;;;;;;8.69;100.00;99827.75;5054122;28;20021;-34
2023/10/25 06:33:11;;;;;;;5.90;2.15;;;;;;;8.68;100.00;99820.72;5053684;28;20479;-34
2023/10/25 06:35:37;;;;;;;6.20;1.97;;;;;;;8.69;100.00;99825.88;5053543;28;20028;-35
2023/10/25 06:38:02;;;;;;;4.68;1.80;;;;;;;8.64;100.00;99811.50;5053895;28;20029;-34
2023/10/25 06:40:28;;;;;;;4.97;1.83;;;;;;;8.64;100.00;99806.94;5054517;28;20035;-35
2023/10/25 06:42:54;;;;;;;3.58;1.80;;;;;;;8.71;100.00;99818.34;5053576;28;20023;-35
2023/10/25 06:45:19;;;;;;;6.95;2.20;;;;;;;8.70;100.00;99808.63;5054158;28;20021;-35
2023/10/25 06:47:45;;;;;;;3.50;2.00;;;;;;;8.68;100.00;99793.75;5053221;28;20029;-35
2023/10/25 06:50:11;;;;;;;4.35;1.83;;;;;;;8.77;100.00;99792.28;5053596;28;20534;-35
2023/10/25 06:52:37;;;;;;;4.22;1.70;;;;;;;8.78;100.00;99793.94;5053178;28;20461;-34
2023/10/25 06:55:03;;;;;;;5.18;2.00;;;;;;;8.81;100.00;99790.75;5053171;28;20031;-35
2023/10/25 06:57:29;;;;;;;5.45;2.58;;;;;;;8.79;100.00;99787.50;5053130;28;20044;-35
2023/10/25 06:59:54;;;;;;;5.57;1.85;;;;;;;8.81;100.00;99782.66;5053796;28;20029;-35
2023/10/25 07:02:39;;;;;;;4.38;2.38;;;;;;;8.78;100.00;99772.38;5053428;28;20025;-35
2023/10/25 07:05:11;;;;;;;4.22;2.13;;;;;;;8.83;100.00;99769.75;5053667;28;20385;-35
2023/10/25 07:07:37;;;;;;;5.60;2.10;;;;;;;8.85;100.00;99766.81;5053580;28;20017;-34
2023/10/25 07:10:03;;;;;;;6.07;2.75;;;;;;;8.86;100.00;99752.28;5053301;28;20453;-34
2023/10/25 07:12:32;;;;;;;5.65;1.90;;;;;;;8.82;100.00;99751.13;5053016;28;20028;-34
2023/10/25 07:14:57;;;;;;;6.65;2.60;;;;;;;8.89;100.00;99763.41;5053854;28;20057;-34
2023/10/25 07:17:24;;;;;;;4.63;2.73;;;;;;;8.93;100.00;99756.44;5053281;28;20056;-34
2023/10/25 07:19:49;;;;;;;5.03;1.77;;;;;;;8.93;100.00;99750.22;5056643;28;20262;-35
2023/10/25 07:22:15;;;;;;;5.80;2.03;;;;;;;8.93;100.00;99747.53;5057617;28;20096;-34
2023/10/25 07:24:40;;;;;;;7.10;2.50;;;;;;;8.97;100.00;99741.38;5055925;28;20111;-35
2023/10/25 07:27:05;;;;;;;6.78;2.15;;;;;;;8.98;100.00;99737.66;5057263;28;20064;-34
2023/10/25 07:29:31;;;;;;;6.73;2.10;;;;;;;8.99;100.00;99739.28;5057805;28;20025;-35
2023/10/25 07:31:56;;;;;;;5.73;1.90;;;;;;;8.94;100.00;99723.03;5057156;28;20262;-34
2023/10/25 07:34:22;;;;;;;5.07;1.80;;;;;;;9.06;100.00;99730.19;5057130;28;20033;-34
2023/10/25 07:36:47;;;;;;;5.75;1.98;;;;;;;9.05;100.00;99723.97;5057541;28;20438;-34
2023/10/25 07:39:15;;;;;;;9.53;2.20;;;;;;;9.03;100.00;99720.72;5057011;28;20060;-35
2023/10/25 07:41:41;;;;;;;4.88;2.40;;;;;;;9.10;100.00;99731.34;5057228;28;20508;-34
2023/10/25 07:44:06;;;;;;;6.65;2.00;;;;;;;9.09;100.00;99737.78;5056890;28;20078;-34
2023/10/25 07:46:31;;;;;;;4.90;1.80;;;;;;;9.12;100.00;99734.59;5056906;28;20040;-35
2023/10/25 07:48:57;;;;;;;2.93;1.90;;;;;;;9.13;100.00;99725.44;5056861;28;20036;-35
2023/10/25 07:51:22;;;;;;;6.53;2.33;;;;;;;9.06;100.00;99711.31;5057147;28;20021;-35
2023/10/25 07:53:47;;;;;;;2.70;1.70;;;;;;;9.06;100.00;99705.91;5055732;28;20850;-35
2023/10/25 07:56:13;;;;;;;5.20;2.00;;;;;;;9.12;100.00;99713.81;5056132;28;20107;-35
2023/10/25 07:58:38;;;;;;;4.20;2.20;;;;;;;9.15;100.00;99718.72;5056750;28;20457;-34
2023/10/25 08:01:04;;;;;;;3.45;2.00;;;;;;;9.06;100.00;99687.84;5057124;28;20367;-34
2023/10/25 08:03:29;;;;;;;6.28;2.20;;;;;;;9.13;100.00;99691.19;5056589;28;20495;-34
2023/10/25 08:05:55;;;;;;;3.55;2.08;;;;;;;9.03;100.00;99670.31;5056507;28;20021;-35
2023/10/25 08:08:21;;;;;;;4.30;1.90;;;;;;;9.23;100.00;99688.63;5056212;28;20104;-34
2023/10/25 08:10:46;;;;;;;5.15;1.90;;;;;;;9.19;100.00;99671.31;5056436;28;20028;-34
2023/10/25 08:13:12;;;;;;;6.00;1.90;;;;;;;9.29;100.00;99681.41;5056097;28;20108;-34
2023/10/25 08:15:37;;;;;;;4.93;2.00;;;;;;;9.22;100.00;99661.91;5056423;28;20417;-34
2023/10/25 08:18:03;;;;;;;4.33;1.77;;;;;;;9.16;100.00;99644.03;5056243;28;20286;-34
2023/10/25 08:20:28;;;;;;;4.72;1.85;;;;;;;9.29;100.00;99671.44;5056800;28;20444;-34
2023/10/25 08:22:54;;;;;;;4.53;1.70;;;;;;;9.31;100.00;99667.66;5056216;28;20107;-35
2023/10/25 08:25:21;;;;;;;5.40;1.73;;;;;;;9.28;100.00;99661.72;5056444;28;20028;-34
2023/10/25 08:27:46;;;;;;;;;;;;;;;9.39;100.00;99659.97;5056504;28;20114;-35
2023/10/25 08:30:12;;;;;;;3.45;1.80;;;;;;;9.28;100.00;99645.53;5056410;28;19963;-35
2023/10/25 08:32:37;;;;;;;4.18;1.95;;;;;;;9.37;100.00;99651.31;5056028;28;20441;-34
2023/10/25 08:35:02;;;;;;;5.67;1.80;;;;;;;9.37;100.00;99653.16;5055681;28;20060;-34
2023/10/25 08:37:28;;;;;;;4.30;1.70;;;;;;;9.41;100.00;99652.41;5056068;28;20279;-35
2023/10/25 08:39:53;;;;;;;4.43;1.57;;;;;;;9.40;100.00;99650.78;5055866;28;20427;-35
2023/10/25 08:42:19;;;;;;;3.23;1.60;;;;;;;9.43;100.00;99641.38;5055517;28;20359;-34
2023/10/25 08:44:45;;;;;;;4.72;1.80;;;;;;;9.45;100.00;99640.06;5055832;28;20066;-34
2023/10/25 08:47:11;;;;;;;3.35;1.60;;;;;;;9.44;100.00;99635.72;5055943;28;20056;-34
2023/10/25 08:49:38;;;;;;;5.40;1.63;;;;;;;9.40;100.00;99617.59;5055949;28;20025;-35
2023/10/25 08:52:03;;;;;;;3.60;1.65;;;;;;;9.42;100.00;99618.16;5055573;28;20373;-34
2023/10/25 08:54:29;;;;;;;6.45;1.98;;;;;;;9.47;100.00;99623.63;5055876;28;20031;-35
2023/10/25 08:56:55;;;;;;;3.78;1.83;;;;;;;9.47;100.00;99613.66;5056050;28;20357;-35
2023/10/25 08:59:20;;;;;;;7.60;2.65;;;;;;;9.50;100.00;99626.63;5055518;28;20021;-34
2023/10/25 09:01:46;;;;;;;5.82;2.13;;;;;;;9.52;100.00;99619.09;5056239;28;20033;-34
2023/10/25 09:04:11;;;;;;;4.00;1.70;;;;;;;9.50;100.00;99618.53;5054999;28;20029;-35
2023/10/25 09:06:37;;;;;;;5.70;1.90;;;;;;;9.52;100.00;99611.00;5055868;28;20029;-35
2023/10/25 09:09:05;;;;;;;6.97;2.10;;;;;;;9.50;100.00;99607.72;5054952;28;20503;-34
2023/10/25 09:11:44;;;;;;;4.55;2.00;;;;;;;9.52;100.00;99610.19;5055465;28;20025;-34
2023/10/25 09:14:11;;;;;;;6.05;2.20;;;;;;;9.54;100.00;99608.03;5055752;28;20335;-34
2023/10/25 09:16:41;;;;;;;5.32;3.00;;;;;;;9.51;100.00;99609.34;5055112;28;20024;-34
2023/10/25 09:19:06;;;;;;;4.57;2.38;;;;;;;9.47;100.00;99589.38;5055059;28;20036;-34
2023/10/25 09:21:31;;;;;;;6.27;2.83;;;;;;;9.52;100.00;99589.41;5055872;28;20028;-34
2023/10/25 09:24:04;;;;;;;4.00;2.80;;;;;;;9.50;100.00;99590.72;5055044;28;20036;-34
2023/10/25 09:26:34;;;;;;;6.03;3.15;;;;;;;9.47;100.00;99575.88;5054969;28;20265;-34
2023/10/25 09:29:00;;;;;;;8.90;3.35;;;;;;;9.43;100.00;99568.53;5054608;28;20485;-35
2023/10/25 09:31:29;;;;;;;7.78;3.75;;;;;;;9.39;100.00;99570.09;5055164;28;20048;-34
2023/10/25 09:33:57;;;;;;;4.70;2.90;;;;;;;9.41;100.00;99573.34;5054808;28;20024;-34
2023/10/25 09:36:23;;;;;;;5.82;2.80;;;;;;;9.40;100.00;99564.44;5054938;28;20108;-35
2023/10/25 09:38:51;;;;;;;5.93;2.92;;;;;;;9.40;100.00;99569.84;5054668;28;20556;-35
2023/10/25 09:41:18;;;;;;;5.68;2.97;;;;;;;9.27;100.00;99545.97;5053830;28;20020;-35
2023/10/25 09:43:47;;;;;;;7.55;2.90;;;;;;;9.39;100.00;99572.81;5054599;28;20025;-35
2023/10/25 09:46:16;;;;;;;4.10;2.85;;;;;;;9.45;100.00;99578.00;5054864;28;20133;-35
2023/10/25 09:48:53;;;;;;;5.00;3.08;;;;;;;9.46;100.00;99574.22;5054502;28;20032;-35
2023/10/25 09:51:30;;;;;;;6.15;3.22;;;;;;;9.44;100.00;99553.97;5054544;28;20086;-35
2023/10/25 09:54:12;;;;;;;5.10;3.25;;;;;;;9.46;100.00;99555.34;5054507;28;20368;-35
2023/10/25 09:56:38;;;;;;;6.60;3.45;;;;;;;9.40;100.00;99544.75;5054900;28;20025;-35
2023/10/25 09:59:10;;;;;;;5.43;3.75;;;;;;;9.40;100.00;99542.06;5054799;28;20145;-35
2023/10/25 10:01:38;;;;;;;6.78;3.58;;;;;;;9.37;100.00;99537.16;5054591;28;20385;-35
2023/10/25 10:04:24;;;;;;;5.80;4.18;;;;;;;9.35;100.00;99529.31;5053907;28;20021;-35
2023/10/25 10:07:40;;;;;;;5.18;3.58;;;;;;;9.28;100.00;99509.84;5054501;28;20029;-35
2023/10/25 10:10:24;;;;;;;4.93;3.95;;;;;;;9.30;100.00;99515.78;5020164;28;20037;-34
2023/10/25 10:12:49;;;;;;;5.28;3.70;;;;;;;9.33;100.00;99514.47;5054961;28;20024;-34
2023/10/25 10:15:16;;;;;;;8.25;3.95;;;;;;;9.33;100.00;99520.69;5054045;28;20021;-34
2023/10/25 10:17:45;;;;;;;11.18;4.00;;;;;;;9.28;100.00;99512.53;5054266;28;20028;-34
2023/10/25 10:20:30;;;;;;;6.32;3.97;;;;;;;9.26;100.00;99507.38;5054289;28;20479;-34
2023/10/25 10:23:06;;;;;;;6.82;4.32;;;;;;;9.28;100.00;99502.56;5054248;28;20032;-35
2023/10/25 10:25:50;;;;;;;6.72;4.00;;;;;;;9.26;100.00;99493.09;5054761;28;20021;-34
2023/10/25 10:28:16;;;;;;;5.53;3.97;;;;;;;9.14;100.00;99478.97;5053834;28;20028;-35
2023/10/25 10:30:42;;;;;;;6.53;4.07;;;;;;;9.12;100.00;99468.41;5053894;28;20368;-34
2023/10/25 10:33:10;;;;;;;6.80;4.00;;;;;;;9.14;100.00;99460.06;5053787;28;20056;-34
2023/10/25 10:35:40;;;;;;;5.03;3.60;;;;;;;9.24;100.00;99469.06;5054046;28;20024;-34
2023/10/25 10:38:06;;;;;;;6.15;4.57;;;;;;;9.22;100.00;99462.28;5054230;28;20349;-34
2023/10/25 10:40:32;;;;;;;5.60;4.38;;;;;;;9.17;100.00;99446.06;5053776;28;20242;-35
2023/10/25 10:42:57;;;;;;;4.93;4.17;;;;;;;9.23;100.00;99456.66;5054008;28;20051;-34
2023/10/25 10:45:23;;;;;;;10.55;3.88;;;;;;;9.27;100.00;99444.28;5053628;28;20108;-34
2023/10/25 10:47:54;;;;;;;6.05;4.25;;;;;;;9.28;100.00;99442.41;5053278;28;20029;-35
2023/10/25 10:50:21;;;;;;;5.30;4.43;;;;;;;9.26;100.00;99442.66;5053881;28;20102;-35
2023/10/25 10:52:50;;;;;;;6.65;5.00;;;;;;;9.20;100.00;99421.28;5052087;28;20028;-34
2023/10/25 10:55:17;;;;;;;6.82;4.45;;;;;;;9.28;100.00;99434.31;5053526;28;20025;-34
2023/10/25 10:57:44;;;;;;;5.72;4.20;;;;;;;9.32;100.00;99427.34;5053747;28;20122;-34
2023/10/25 11:00:10;;;;;;;;;;;;;;;9.36;100.00;99417.63;5053829;28;20349;-34
2023/10/25 11:02:37;;;;;;;7.00;4.32;;;;;;;9.32;100.00;99415.72;5053446;28;19916;-35
2023/10/25 11:05:02;;;;;;;;;;;;;;;9.37;100.00;99408.50;5053927;28;20028;-35
2023/10/25 11:07:27;;;;;;;4.45;3.80;;;;;;;9.38;100.00;99403.91;5053402;28;20371;-35
2023/10/25 11:09:53;;;;;;;6.33;3.60;;;;;;;9.41;100.00;99403.38;5053442;28;20048;-34
2023/10/25 11:12:18;;;;;;;6.57;4.10;;;;;;;9.27;100.00;99381.41;5053684;28;20028;-34
2023/10/25 11:14:45;;;;;;;4.37;3.70;;;;;;;9.41;100.00;99385.31;5054162;28;20021;-34
2023/10/25 11:17:11;;;;;;;6.80;4.35;;;;;;;9.28;100.00;99356.91;5052962;28;20282;-35
2023/10/25 11:19:37;;;;;;;7.28;4.05;;;;;;;9.36;100.00;99377.16;5053649;28;20085;-35
2023/10/25 11:22:03;;;;;;;6.43;4.18;;;;;;;9.39;100.00;99376.66;5054108;28;20052;-34
2023/10/25 11:24:29;;;;;;;7.93;4.43;;;;;;;9.38;100.00;99372.34;5053189;28;20388;-35
2023/10/25 11:26:55;;;;;;;5.28;4.15;;;;;;;9.38;100.00;99372.34;5054052;28;20342;-34
2023/10/25 11:29:22;;;;;;;8.35;5.13;;;;;;;9.39;100.00;99356.97;5053224;28;20029;-34
2023/10/25 11:31:49;;;;;;;7.90;4.57;;;;;;;9.41;100.00;99361.03;5053211;28;20480;-34